Time;durP1;ratioP1;P1;durP2;ratioP2;P2;SDS_P1;SDS_P2;PMS_P1;PMS_P2;Temp;Humidity;BMP_temperature;BMP_pressure;BME280_temperature;BME280_humidity;BME280_pressure;Samples;Min_cycle;Max_cycle;Signal;HPM_P1;HPM_P2
2023/01/17 00:01:46;;;;;;;7.47;1.33;;;4.30;99.90;;;;;;5028450;28;20472;-80
2023/01/17 00:09:56;;;;;;;14.17;2.40;;;4.40;99.90;;;;;;5052317;28;20625;-83
2023/01/17 00:12:25;;;;;;;3.73;1.63;;;4.40;99.90;;;;;;5050968;28;20202;-78
2023/01/17 00:14:54;;;;;;;9.07;1.70;;;4.60;99.90;;;;;;5031620;28;20314;-77
2023/01/17 00:17:21;;;;;;;7.43;1.67;;;4.70;99.90;;;;;;5027007;28;20207;-78
2023/01/17 01:34:45;;;;;;;4.30;1.20;;;3.70;99.90;;;;;;5025903;28;20326;-78
2023/01/17 01:37:12;;;;;;;2.40;1.27;;;3.70;99.90;;;;;;5026495;28;20202;-83
2023/01/17 01:39:40;;;;;;;3.53;1.90;;;3.60;99.90;;;;;;5046596;28;20221;-83
2023/01/17 01:42:13;;;;;;;2.20;1.10;;;3.60;99.90;;;;;;5049367;28;20244;-85
2023/01/17 01:44:46;;;;;;;4.30;1.93;;;3.60;99.90;;;;;;5049154;28;20205;-81
2023/01/17 01:47:17;;;;;;;8.83;1.97;;;3.60;99.90;;;;;;5049071;28;20206;-80
2023/01/17 01:49:44;;;;;;;8.23;1.57;;;3.70;99.90;;;;;;5049915;28;20194;-80
2023/01/17 01:52:12;;;;;;;8.37;1.20;;;3.70;99.90;;;;;;5050352;28;20214;-83
2023/01/17 01:54:43;;;;;;;2.17;0.67;;;3.60;99.90;;;;;;5050095;28;20546;-84
2023/01/17 01:57:15;;;;;;;2.30;0.80;;;3.50;99.90;;;;;;5031252;28;20297;-82
2023/01/17 01:59:48;;;;;;;4.97;1.30;;;3.40;99.90;;;;;;5029412;28;20213;-82
2023/01/17 02:02:15;;;;;;;6.87;2.07;;;3.30;99.90;;;;;;5050156;28;20288;-81
2023/01/17 02:04:44;;;;;;;6.10;0.90;;;3.30;99.90;;;;;;5047272;28;20547;-82
2023/01/17 02:07:14;;;;;;;5.30;1.07;;;3.20;99.90;;;;;;5030732;28;20226;-81
2023/01/17 02:09:43;;;;;;;5.77;1.40;;;3.30;99.90;;;;;;5030126;28;20199;-82
2023/01/17 02:12:10;;;;;;;4.10;1.10;;;3.30;99.90;;;;;;5029527;28;20273;-82
2023/01/17 02:14:37;;;;;;;2.73;0.97;;;3.30;99.90;;;;;;5029674;28;20630;-83
2023/01/17 02:17:16;;;;;;;3.73;1.00;;;3.20;99.90;;;;;;5029714;28;20191;-81
2023/01/17 02:20:29;;;;;;;4.10;1.23;;;3.20;99.90;;;;;;5026143;28;20217;-80
2023/01/17 02:23:25;;;;;;;4.20;1.20;;;3.20;99.90;;;;;;5040097;28;20305;-79
2023/01/17 02:26:36;;;;;;;8.23;1.23;;;3.30;99.90;;;;;;5044632;28;20198;-77
2023/01/17 02:29:42;;;;;;;6.37;1.00;;;3.30;99.90;;;;;;5027419;28;20385;-78
2023/01/17 02:32:16;;;;;;;6.83;1.77;;;3.30;99.90;;;;;;5024660;28;21055;-77
2023/01/17 02:34:49;;;;;;;3.33;1.03;;;3.30;99.90;;;;;;5024796;28;20856;-79
2023/01/17 02:37:23;;;;;;;4.83;1.60;;;3.30;99.90;;;;;;5023693;28;20206;-77
2023/01/17 02:39:57;;;;;;;5.37;1.10;;;3.30;99.90;;;;;;5022854;28;20193;-76
2023/01/17 02:42:31;;;;;;;8.33;1.53;;;3.30;99.90;;;;;;5023383;28;20240;-75
2023/01/17 02:44:57;;;;;;;3.90;1.10;;;3.30;99.90;;;;;;5024123;28;20204;-76
2023/01/17 02:47:28;;;;;;;3.77;0.90;;;3.30;99.90;;;;;;5023290;28;20210;-75
2023/01/17 02:50:00;;;;;;;1.77;0.87;;;3.20;99.90;;;;;;5024668;28;21047;-76
2023/01/17 02:52:41;;;;;;;6.40;1.13;;;3.20;99.90;;;;;;5023458;28;20214;-76
2023/01/17 02:55:21;;;;;;;3.73;0.90;;;3.10;99.90;;;;;;5023743;28;20817;-77
2023/01/17 02:58:07;;;;;;;4.77;1.20;;;3.00;99.90;;;;;;5024016;28;20202;-77
2023/01/17 03:00:43;;;;;;;4.53;1.10;;;3.00;99.90;;;;;;5022254;28;20210;-78
2023/01/17 03:03:19;;;;;;;5.67;1.00;;;3.10;99.90;;;;;;5023909;28;20228;-77
2023/01/17 03:05:50;;;;;;;7.70;0.90;;;3.20;99.90;;;;;;5024472;28;20386;-77
2023/01/17 03:08:18;;;;;;;4.03;1.00;;;3.30;99.90;;;;;;5023710;28;20203;-76
2023/01/17 03:10:45;;;;;;;7.00;1.13;;;3.50;99.90;;;;;;5023575;28;20232;-75
2023/01/17 03:13:12;;;;;;;2.80;0.80;;;3.60;99.90;;;;;;5023760;28;20218;-76
2023/01/17 03:15:40;;;;;;;3.73;1.30;;;3.80;99.90;;;;;;5022296;28;20310;-77
2023/01/17 03:18:12;;;;;;;5.07;0.90;;;3.90;99.90;;;;;;5023415;28;20207;-77
2023/01/17 03:20:40;;;;;;;2.73;0.90;;;4.00;99.90;;;;;;5022488;28;20211;-75
2023/01/17 03:23:08;;;;;;;5.13;1.13;;;4.10;99.90;;;;;;5023057;28;20218;-76
2023/01/17 03:25:34;;;;;;;5.23;1.20;;;4.00;99.90;;;;;;5023028;28;20202;-76
2023/01/17 03:28:01;;;;;;;2.83;0.80;;;4.00;99.90;;;;;;5023605;28;20718;-75
2023/01/17 03:30:28;;;;;;;3.50;1.10;;;4.10;99.90;;;;;;5022173;28;20210;-77
2023/01/17 03:32:55;;;;;;;5.83;1.10;;;4.10;99.90;;;;;;5023454;28;20287;-75
2023/01/17 03:35:22;;;;;;;3.50;1.10;;;4.10;98.60;;;;;;5022848;28;20610;-76
2023/01/17 03:37:50;;;;;;;4.13;1.17;;;4.10;99.90;;;;;;5023211;28;20208;-76
2023/01/17 03:40:17;;;;;;;6.50;0.97;;;4.10;99.90;;;;;;5023472;28;20234;-76
2023/01/17 03:42:45;;;;;;;5.13;1.10;;;4.20;99.90;;;;;;5022276;28;20394;-76
2023/01/17 03:45:12;;;;;;;3.73;1.10;;;4.30;99.90;;;;;;5023853;28;20210;-78
2023/01/17 03:47:39;;;;;;;7.93;1.40;;;4.30;99.90;;;;;;5023205;28;20209;-79
2023/01/17 03:50:06;;;;;;;3.47;1.00;;;4.40;99.90;;;;;;5022268;28;20202;-79
2023/01/17 03:52:33;;;;;;;3.20;0.90;;;4.40;99.90;;;;;;5023074;28;20230;-78
2023/01/17 03:55:02;;;;;;;5.47;1.20;;;4.40;99.70;;;;;;5023558;28;20210;-75
2023/01/17 03:57:29;;;;;;;6.17;1.07;;;4.40;98.70;;;;;;5022536;28;20209;-80
2023/01/17 03:59:56;;;;;;;5.43;1.00;;;4.30;99.90;;;;;;5023411;28;20495;-78
2023/01/17 04:02:23;;;;;;;2.60;0.97;;;4.30;65.30;;;;;;5023322;28;20292;-77
2023/01/17 04:04:50;;;;;;;3.83;0.90;;;4.30;56.50;;;;;;5024394;28;20840;-81
2023/01/17 04:07:17;;;;;;;2.83;1.00;;;4.30;66.20;;;;;;5025091;28;20590;-80
2023/01/17 04:09:44;;;;;;;8.10;1.20;;;4.30;46.20;;;;;;5021941;28;20211;-77
2023/01/17 04:12:12;;;;;;;3.13;1.20;;;4.30;39.50;;;;;;5022813;28;20604;-77
2023/01/17 04:14:39;;;;;;;5.13;1.30;;;4.30;29.90;;;;;;5022455;28;20603;-76
2023/01/17 04:17:07;;;;;;;5.13;1.17;;;4.40;51.90;;;;;;5022862;28;20313;-77
2023/01/17 04:19:36;;;;;;;2.10;0.80;;;4.30;71.70;;;;;;5021567;28;20626;-76
2023/01/17 04:22:03;;;;;;;7.77;1.43;;;4.20;67.50;;;;;;5026669;28;20198;-78
2023/01/17 04:24:30;;;;;;;1.53;0.70;;;4.20;58.50;;;;;;5041646;28;20205;-78
2023/01/17 04:26:57;;;;;;;3.47;0.90;;;4.20;33.20;;;;;;5038405;28;20623;-76
2023/01/17 04:29:25;;;;;;;2.00;0.80;;;4.20;2.50;;;;;;5022452;28;20281;-76
2023/01/17 04:31:52;;;;;;;1.93;0.77;;;4.10;20.00;;;;;;5022107;28;20529;-77
2023/01/17 04:34:19;;;;;;;2.03;0.87;;;4.10;35.00;;;;;;5023289;28;20203;-78
2023/01/17 04:36:46;;;;;;;1.90;0.80;;;4.20;45.50;;;;;;5022138;28;20202;-76
2023/01/17 04:39:13;;;;;;;2.10;0.70;;;4.10;53.10;;;;;;5022401;28;20202;-77
2023/01/17 04:41:39;;;;;;;1.83;0.90;;;4.20;85.40;;;;;;5022167;28;20244;-77
2023/01/17 04:44:06;;;;;;;5.87;0.90;;;4.20;99.90;;;;;;5022845;28;20535;-76
2023/01/17 04:46:35;;;;;;;12.27;2.30;;;4.20;99.90;;;;;;5021596;28;20285;-77
2023/01/17 04:49:01;;;;;;;2.57;0.90;;;4.20;99.90;;;;;;5022982;28;20277;-78
2023/01/17 04:51:28;;;;;;;5.57;1.00;;;4.30;99.90;;;;;;5024446;28;20229;-77
2023/01/17 04:53:55;;;;;;;4.17;1.37;;;4.20;99.90;;;;;;5024011;28;20561;-77
2023/01/17 04:56:22;;;;;;;10.43;2.43;;;4.30;99.90;;;;;;5029100;28;20210;-81
2023/01/17 04:58:49;;;;;;;5.20;1.00;;;4.20;99.90;;;;;;5033979;28;20218;-80
2023/01/17 05:01:16;;;;;;;6.80;1.10;;;4.20;99.90;;;;;;5049538;28;20205;-81
2023/01/17 05:03:44;;;;;;;7.23;0.97;;;4.20;99.90;;;;;;5049583;28;20208;-81
2023/01/17 05:06:11;;;;;;;2.57;0.80;;;4.20;99.90;;;;;;5049991;28;20229;-79
2023/01/17 05:08:38;;;;;;;5.23;0.90;;;4.20;99.90;;;;;;5041128;28;20205;-81
2023/01/17 05:11:05;;;;;;;2.97;1.07;;;4.20;99.90;;;;;;5029446;28;20286;-81
2023/01/17 05:13:32;;;;;;;2.07;0.90;;;4.10;99.90;;;;;;5035272;28;20222;-78
2023/01/17 05:15:59;;;;;;;4.53;1.00;;;4.20;99.90;;;;;;5048287;28;20337;-80
2023/01/17 05:18:26;;;;;;;5.80;1.00;;;4.20;99.90;;;;;;5048907;28;20296;-80
2023/01/17 05:20:54;;;;;;;7.00;1.03;;;4.30;99.90;;;;;;5048489;28;20285;-81
2023/01/17 05:23:21;;;;;;;5.03;1.10;;;4.20;99.90;;;;;;5049744;28;20213;-81
2023/01/17 05:25:48;;;;;;;5.23;2.00;;;4.20;99.90;;;;;;5049165;28;20202;-81
2023/01/17 05:28:15;;;;;;;2.23;1.17;;;4.10;99.90;;;;;;5047317;28;20194;-81
2023/01/17 05:30:42;;;;;;;4.83;0.90;;;4.10;99.90;;;;;;5050086;28;20293;-82
2023/01/17 05:33:09;;;;;;;4.80;0.83;;;4.10;99.90;;;;;;5032165;28;20314;-81
2023/01/17 05:35:36;;;;;;;3.03;1.33;;;4.10;99.90;;;;;;5028359;28;20728;-82
2023/01/17 05:38:05;;;;;;;5.20;1.30;;;4.10;99.90;;;;;;5027426;28;20198;-82
2023/01/17 05:40:32;;;;;;;5.87;0.90;;;4.10;99.90;;;;;;5025291;28;20296;-77
2023/01/17 05:43:01;;;;;;;6.90;2.97;;;4.10;99.90;;;;;;5024923;28;20209;-77
2023/01/17 05:45:31;;;;;;;7.00;1.90;;;4.20;99.90;;;;;;5024258;28;20805;-77
2023/01/17 05:47:58;;;;;;;4.90;1.30;;;4.20;99.90;;;;;;5024524;28;20213;-75
2023/01/17 05:50:27;;;;;;;4.07;1.20;;;4.30;99.90;;;;;;5024090;28;20214;-77
2023/01/17 05:52:55;;;;;;;7.03;1.20;;;4.30;99.90;;;;;;5024316;28;20514;-77
2023/01/17 05:55:24;;;;;;;4.77;1.10;;;4.40;99.90;;;;;;5024441;28;20206;-76
2023/01/17 05:57:52;;;;;;;3.80;1.20;;;4.40;99.90;;;;;;5023412;28;20952;-79
2023/01/17 06:00:19;;;;;;;4.33;0.97;;;4.40;99.90;;;;;;5027478;28;20302;-78
2023/01/17 06:02:46;;;;;;;2.70;1.00;;;4.40;99.90;;;;;;5024697;28;20209;-77
2023/01/17 06:05:14;;;;;;;4.10;1.20;;;4.40;99.90;;;;;;5024397;28;20757;-77
2023/01/17 06:07:44;;;;;;;3.00;1.43;;;4.40;99.90;;;;;;5024027;28;20206;-77
2023/01/17 06:10:13;;;;;;;4.73;1.57;;;4.40;99.90;;;;;;5024481;28;20715;-77
2023/01/17 06:12:42;;;;;;;6.90;1.70;;;4.50;99.90;;;;;;5024992;28;20566;-82
2023/01/17 06:15:09;;;;;;;7.20;1.50;;;4.40;99.90;;;;;;5028414;28;20194;-81
2023/01/17 06:17:36;;;;;;;5.97;1.67;;;4.50;99.90;;;;;;5028434;28;20205;-82
2023/01/17 06:20:04;;;;;;;6.93;2.47;;;4.50;99.90;;;;;;5027077;28;20294;-77
2023/01/17 06:22:31;;;;;;;4.37;1.30;;;4.60;99.90;;;;;;5025785;28;20198;-77
2023/01/17 06:24:58;;;;;;;3.50;1.37;;;4.60;99.90;;;;;;5024446;28;20832;-77
2023/01/17 06:27:25;;;;;;;3.63;1.37;;;4.50;99.90;;;;;;5041442;28;20259;-82
2023/01/17 06:29:53;;;;;;;7.30;1.70;;;4.50;99.90;;;;;;5039680;28;20260;-82
2023/01/17 06:32:20;;;;;;;5.27;1.30;;;4.50;99.90;;;;;;5026637;28;20266;-81
2023/01/17 06:34:47;;;;;;;4.07;1.23;;;4.60;99.90;;;;;;5025583;28;20211;-79
2023/01/17 06:37:14;;;;;;;2.27;1.10;;;4.60;99.90;;;;;;5026006;28;20198;-80
2023/01/17 06:39:41;;;;;;;3.50;1.50;;;4.50;99.90;;;;;;5025196;28;20222;-78
2023/01/17 06:42:07;;;;;;;3.10;1.20;;;4.50;99.90;;;;;;5025590;28;20238;-80
2023/01/17 06:44:34;;;;;;;4.80;1.20;;;4.50;99.90;;;;;;5023814;28;20240;-81
2023/01/17 06:47:03;;;;;;;3.20;1.10;;;4.40;99.90;;;;;;5023611;28;20209;-82
2023/01/17 06:49:29;;;;;;;5.07;1.20;;;4.40;99.90;;;;;;5024851;28;20220;-79
2023/01/17 06:51:56;;;;;;;3.87;1.10;;;4.30;99.90;;;;;;5025595;28;20524;-80
2023/01/17 06:54:23;;;;;;;4.50;1.30;;;4.30;99.90;;;;;;5024837;28;20285;-81
2023/01/17 06:56:50;;;;;;;6.60;1.20;;;4.30;99.90;;;;;;5026704;28;20214;-81
2023/01/17 06:59:17;;;;;;;6.43;1.40;;;4.30;99.90;;;;;;5026663;28;20229;-82
2023/01/17 07:01:44;;;;;;;6.83;1.07;;;4.20;99.90;;;;;;5026530;28;20198;-80
2023/01/17 07:04:12;;;;;;;4.40;0.90;;;4.20;99.90;;;;;;5027147;28;20214;-81
2023/01/17 07:06:39;;;;;;;6.53;1.30;;;4.20;99.90;;;;;;5036379;28;20205;-83
2023/01/17 07:09:05;;;;;;;3.70;1.20;;;4.20;99.90;;;;;;5044966;28;20205;-80
2023/01/17 07:11:32;;;;;;;3.43;1.00;;;4.20;99.90;;;;;;5043190;28;20209;-79
2023/01/17 07:13:59;;;;;;;2.77;0.80;;;4.10;99.90;;;;;;5043473;28;20240;-77
2023/01/17 07:16:26;;;;;;;3.93;1.30;;;4.10;99.90;;;;;;5026822;28;20309;-76
2023/01/17 07:18:53;;;;;;;5.77;1.23;;;4.10;99.90;;;;;;5022853;28;20260;-76
2023/01/17 07:21:22;;;;;;;4.67;1.00;;;4.10;99.90;;;;;;5022335;28;20210;-77
2023/01/17 07:23:49;;;;;;;5.67;0.90;;;4.10;99.90;;;;;;5022505;28;20532;-76
2023/01/17 07:26:16;;;;;;;2.20;0.90;;;4.00;99.90;;;;;;5022565;28;20198;-78
2023/01/17 07:28:43;;;;;;;7.00;1.60;;;4.00;99.90;;;;;;5021351;28;20199;-79
2023/01/17 07:31:10;;;;;;;2.57;1.20;;;4.00;99.90;;;;;;5022069;28;20214;-79
2023/01/17 07:33:37;;;;;;;3.00;0.90;;;3.90;99.90;;;;;;5023041;28;20336;-79
2023/01/17 07:36:06;;;;;;;2.50;0.93;;;3.90;99.90;;;;;;5022695;28;20210;-80
2023/01/17 07:38:34;;;;;;;4.43;1.20;;;3.90;99.90;;;;;;5023647;28;20213;-79
2023/01/17 07:41:01;;;;;;;3.17;0.90;;;3.90;99.90;;;;;;5029953;28;20791;-78
2023/01/17 07:43:28;;;;;;;5.97;0.90;;;3.90;99.90;;;;;;5043233;28;20220;-80
2023/01/17 07:45:55;;;;;;;2.57;1.00;;;3.90;99.90;;;;;;5043362;28;20326;-80
2023/01/17 07:48:24;;;;;;;5.53;1.57;;;3.80;99.90;;;;;;5041212;28;20210;-80
2023/01/17 07:50:55;;;;;;;1.57;0.80;;;3.80;99.90;;;;;;5043404;28;20256;-78
2023/01/17 07:53:23;;;;;;;2.10;1.10;;;3.80;99.90;;;;;;5043324;28;20321;-77
2023/01/17 07:55:52;;;;;;;4.63;2.03;;;3.80;99.90;;;;;;5022804;28;20246;-79
2023/01/17 07:58:20;;;;;;;4.93;0.93;;;3.70;99.90;;;;;;5023830;28;20213;-82
2023/01/17 08:00:47;;;;;;;6.10;1.40;;;3.80;99.90;;;;;;5023120;28;20416;-80
2023/01/17 08:06:50;;;;;;;4.00;1.33;;;3.80;99.90;;;;;;4868205;28;20211;-80
2023/01/17 08:09:17;;;;;;;4.90;1.33;;;3.80;99.90;;;;;;5043024;28;20308;-80
2023/01/17 08:11:45;;;;;;;9.07;1.37;;;3.90;99.90;;;;;;5042476;28;20210;-80
2023/01/17 08:14:12;;;;;;;3.87;1.10;;;3.90;99.90;;;;;;5037119;28;20632;-79
2023/01/17 08:16:39;;;;;;;5.87;1.40;;;3.90;99.90;;;;;;5039951;28;20245;-78
2023/01/17 08:19:06;;;;;;;2.63;1.30;;;3.90;99.90;;;;;;5036101;28;20628;-78
2023/01/17 08:21:33;;;;;;;3.03;0.90;;;3.90;99.90;;;;;;5028991;28;20694;-78
2023/01/17 08:24:00;;;;;;;5.23;1.33;;;3.90;99.90;;;;;;5036161;28;20271;-78
2023/01/17 08:26:27;;;;;;;4.13;2.07;;;3.90;99.90;;;;;;5042346;28;20218;-79
2023/01/17 08:28:59;;;;;;;9.83;1.30;;;3.90;99.90;;;;;;5044168;28;20657;-80
2023/01/17 08:31:26;;;;;;;2.47;1.10;;;4.00;99.90;;;;;;5045315;28;20194;-79
2023/01/17 08:33:53;;;;;;;3.53;1.27;;;4.00;99.90;;;;;;5044701;28;20328;-79
2023/01/17 08:36:20;;;;;;;5.97;1.47;;;4.00;99.90;;;;;;5046207;28;20532;-80
2023/01/17 08:38:51;;;;;;;3.07;1.10;;;4.00;99.90;;;;;;5045350;28;20209;-80
2023/01/17 08:41:18;;;;;;;3.23;1.30;;;4.10;99.90;;;;;;5042742;28;20242;-79
2023/01/17 08:43:47;;;;;;;7.53;1.60;;;4.10;99.90;;;;;;5044649;28;20504;-80
2023/01/17 08:46:15;;;;;;;7.10;1.80;;;4.10;99.90;;;;;;5044777;28;20569;-79
2023/01/17 08:48:42;;;;;;;2.87;1.20;;;4.00;99.90;;;;;;5043243;28;20705;-78
2023/01/17 08:51:09;;;;;;;3.67;1.53;;;4.10;99.90;;;;;;5046517;28;20198;-78
2023/01/17 08:53:37;;;;;;;2.27;1.20;;;4.10;99.90;;;;;;5045925;28;20328;-79
2023/01/17 08:56:05;;;;;;;4.17;1.20;;;4.10;99.90;;;;;;5045755;28;20210;-79
2023/01/17 08:58:34;;;;;;;2.97;1.30;;;4.10;99.90;;;;;;5045140;28;20216;-79
2023/01/17 09:01:02;;;;;;;2.13;1.17;;;4.10;99.90;;;;;;5045522;28;20252;-78
2023/01/17 09:03:31;;;;;;;4.10;1.57;;;4.20;99.90;;;;;;5045610;28;20229;-79
2023/01/17 09:06:02;;;;;;;4.80;1.57;;;4.20;99.90;;;;;;5041131;28;20324;-78
2023/01/17 09:08:29;;;;;;;1.57;1.10;;;4.10;99.90;;;;;;5044183;28;20284;-79
2023/01/17 09:10:56;;;;;;;3.83;1.60;;;4.00;99.90;;;;;;5045672;28;20201;-78
2023/01/17 09:13:23;;;;;;;3.60;1.93;;;4.00;99.90;;;;;;5044872;28;20939;-78
2023/01/17 09:15:50;;;;;;;1.13;1.00;;;3.90;99.90;;;;;;5044117;28;20295;-80
2023/01/17 09:18:17;;;;;;;3.50;1.40;;;4.00;99.90;;;;;;5045407;28;20296;-78
2023/01/17 09:20:45;;;;;;;3.20;1.20;;;4.00;99.90;;;;;;5041060;28;20360;-77
2023/01/17 09:23:12;;;;;;;3.13;1.37;;;4.00;99.90;;;;;;5046151;28;20202;-79
2023/01/17 09:25:43;;;;;;;6.23;1.80;;;4.00;99.90;;;;;;5046178;28;20293;-78
2023/01/17 09:28:10;;;;;;;5.37;1.33;;;4.10;99.90;;;;;;5044949;28;20229;-78
2023/01/17 09:30:37;;;;;;;1.93;0.90;;;4.00;99.90;;;;;;5045227;28;20218;-80
2023/01/17 09:33:04;;;;;;;2.47;1.30;;;4.00;99.90;;;;;;5044449;28;20218;-80
2023/01/17 09:35:31;;;;;;;3.67;1.07;;;4.00;99.90;;;;;;5044920;28;20289;-78
2023/01/17 09:37:59;;;;;;;4.70;1.37;;;4.00;99.90;;;;;;5042143;28;20194;-79
2023/01/17 09:40:26;;;;;;;2.87;1.47;;;4.00;99.90;;;;;;5025243;28;20214;-78
2023/01/17 09:43:00;;;;;;;2.10;1.33;;;4.10;99.90;;;;;;5025141;28;20748;-79
2023/01/17 09:45:29;;;;;;;6.83;1.50;;;4.20;99.90;;;;;;5026306;28;20225;-79
2023/01/17 09:47:57;;;;;;;1.27;0.90;;;4.20;99.90;;;;;;5025034;28;20794;-78
2023/01/17 09:50:30;;;;;;;2.50;1.07;;;4.30;99.90;;;;;;5025381;28;20202;-79
2023/01/17 09:53:02;;;;;;;3.33;1.10;;;4.20;99.90;;;;;;5025789;28;20272;-79
2023/01/17 09:55:37;;;;;;;2.63;0.87;;;4.30;99.90;;;;;;5025686;28;20226;-79
2023/01/17 09:58:08;;;;;;;3.90;1.17;;;4.40;99.90;;;;;;5025298;28;20270;-79
2023/01/17 10:00:46;;;;;;;1.73;1.10;;;4.50;99.90;;;;;;5025223;28;20183;-80
2023/01/17 10:03:40;;;;;;;2.63;1.13;;;4.50;99.90;;;;;;5034540;28;20290;-77
2023/01/17 10:06:22;;;;;;;3.20;1.40;;;4.70;99.90;;;;;;5045255;28;20202;-78
2023/01/17 10:09:15;;;;;;;1.47;0.90;;;4.70;99.90;;;;;;5029317;28;20199;-80
2023/01/17 10:12:01;;;;;;;1.53;0.80;;;4.70;99.90;;;;;;5043792;28;20209;-81
2023/01/17 10:14:55;;;;;;;3.00;1.20;;;4.70;99.90;;;;;;5030771;28;20212;-78
2023/01/17 10:17:35;;;;;;;1.73;1.33;;;4.70;99.90;;;;;;5038904;28;21406;-79
2023/01/17 10:20:16;;;;;;;1.10;1.00;;;4.70;99.90;;;;;;5044409;28;20213;-77
2023/01/17 10:23:04;;;;;;;3.50;0.93;;;4.70;99.90;;;;;;5043571;28;20206;-78
2023/01/17 10:25:43;;;;;;;2.70;1.40;;;4.80;99.90;;;;;;5044231;28;20321;-78
2023/01/17 10:28:16;;;;;;;1.60;0.93;;;4.90;99.90;;;;;;5036934;28;20218;-79
2023/01/17 10:30:48;;;;;;;2.60;1.00;;;4.90;99.90;;;;;;5024131;28;20257;-79
2023/01/17 10:33:19;;;;;;;1.33;0.90;;;4.90;99.90;;;;;;5043477;28;20229;-78
2023/01/17 10:35:55;;;;;;;5.37;1.37;;;5.00;99.90;;;;;;5045534;28;20316;-79
2023/01/17 10:38:28;;;;;;;4.53;1.40;;;5.10;99.90;;;;;;5035840;28;20214;-79
2023/01/17 10:41:04;;;;;;;1.90;1.00;;;5.20;99.90;;;;;;5023178;28;20248;-80
2023/01/17 10:43:43;;;;;;;1.60;1.10;;;5.20;99.90;;;;;;5023450;28;20217;-79
2023/01/17 10:46:16;;;;;;;5.47;1.10;;;5.30;99.90;;;;;;5023876;28;20579;-80
2023/01/17 10:48:45;;;;;;;4.23;1.30;;;5.30;99.90;;;;;;5023640;28;20701;-78
2023/01/17 10:51:41;;;;;;;3.50;0.80;;;5.30;99.90;;;;;;5022995;28;20214;-79
2023/01/17 10:54:17;;;;;;;1.27;1.00;;;5.30;99.90;;;;;;5025600;28;20230;-80
2023/01/17 10:56:45;;;;;;;2.50;1.00;;;5.30;99.90;;;;;;5025601;28;20187;-81
2023/01/17 10:59:20;;;;;;;3.13;0.90;;;5.30;99.90;;;;;;5025418;28;20210;-79
2023/01/17 11:01:47;;;;;;;3.03;1.07;;;5.30;99.90;;;;;;5029911;28;20213;-79
2023/01/17 11:04:19;;;;;;;2.80;1.20;;;5.30;99.90;;;;;;5044261;28;20514;-80
2023/01/17 11:06:46;;;;;;;2.17;1.30;;;5.30;99.90;;;;;;5037788;28;20256;-80
2023/01/17 11:09:14;;;;;;;2.30;1.03;;;5.30;99.90;;;;;;5007663;28;20726;-78
2023/01/17 11:11:49;;;;;;;2.60;0.63;;;5.30;99.90;;;;;;5028795;28;20198;-79
2023/01/17 11:14:20;;;;;;;2.77;0.80;;;5.30;99.90;;;;;;5044246;28;20869;-80
2023/01/17 11:16:59;;;;;;;3.63;1.40;;;5.30;99.90;;;;;;5038479;28;20257;-81
2023/01/17 11:19:31;;;;;;;1.93;1.03;;;5.20;99.90;;;;;;5025681;28;20296;-80
2023/01/17 11:22:01;;;;;;;1.50;1.03;;;5.20;99.90;;;;;;5042816;28;20883;-80
2023/01/17 11:24:35;;;;;;;3.33;1.10;;;5.10;99.90;;;;;;5023731;28;20763;-79
2023/01/17 11:27:05;;;;;;;2.90;1.30;;;5.10;99.90;;;;;;5028872;28;20564;-78
2023/01/17 11:29:35;;;;;;;1.97;0.97;;;5.00;99.90;;;;;;5024446;28;20194;-79
2023/01/17 11:32:29;;;;;;;1.70;1.03;;;5.00;99.90;;;;;;5024014;28;20210;-79
2023/01/17 11:35:14;;;;;;;2.83;1.37;;;4.90;99.90;;;;;;5022420;28;20506;-79
2023/01/17 11:37:49;;;;;;;4.87;1.20;;;4.90;99.90;;;;;;5023345;28;20202;-79
2023/01/17 11:40:24;;;;;;;2.63;1.40;;;5.00;99.90;;;;;;5022448;28;20213;-79
2023/01/17 11:43:06;;;;;;;3.67;1.90;;;5.00;99.90;;;;;;5020936;28;20680;-80
2023/01/17 11:45:34;;;;;;;3.23;1.50;;;5.10;99.90;;;;;;5023522;28;20211;-78
2023/01/17 11:48:13;;;;;;;1.93;1.50;;;5.10;99.90;;;;;;5023319;28;20745;-80
2023/01/17 11:50:41;;;;;;;5.10;1.50;;;5.20;99.90;;;;;;5024160;28;20281;-80
2023/01/17 11:53:21;;;;;;;3.03;1.30;;;5.20;99.90;;;;;;5023503;28;20618;-78
2023/01/17 11:55:58;;;;;;;3.23;1.70;;;5.30;99.90;;;;;;5041449;28;20205;-79
2023/01/17 11:58:28;;;;;;;2.63;1.03;;;5.40;99.90;;;;;;5042115;28;20688;-79
2023/01/17 12:01:12;;;;;;;4.87;1.53;;;5.50;99.90;;;;;;5047480;28;20210;-79
2023/01/17 12:03:58;;;;;;;2.30;1.30;;;5.60;99.90;;;;;;5045761;28;20190;-80
2023/01/17 12:06:34;;;;;;;2.80;1.40;;;5.70;99.90;;;;;;5043245;28;20285;-79
2023/01/17 12:09:11;;;;;;;2.10;1.87;;;5.70;99.90;;;;;;5047928;28;20221;-80
2023/01/17 12:14:40;;;;;;;4.73;1.50;;;5.80;99.90;;;;;;5034991;28;20214;-80
2023/01/17 12:17:20;;;;;;;5.03;1.90;;;5.80;99.90;;;;;;5027939;28;20190;-79
2023/01/17 12:19:59;;;;;;;5.97;1.80;;;5.90;99.90;;;;;;5027271;28;20493;-80
2023/01/17 12:22:43;;;;;;;2.47;1.40;;;5.90;99.90;;;;;;5026234;28;20757;-81
2023/01/17 12:25:26;;;;;;;2.97;1.37;;;5.90;99.90;;;;;;5026765;28;20197;-79
2023/01/17 12:28:10;;;;;;;2.10;1.33;;;5.80;99.90;;;;;;5046976;28;20549;-79
2023/01/17 12:30:59;;;;;;;3.57;1.47;;;5.80;99.90;;;;;;5046053;28;20648;-79
2023/01/17 12:33:36;;;;;;;2.00;1.23;;;5.80;99.90;;;;;;5048119;28;20198;-79
2023/01/17 12:36:08;;;;;;;3.67;1.60;;;5.80;99.90;;;;;;5040378;28;20943;-79
2023/01/17 12:38:38;;;;;;;2.97;1.47;;;5.80;99.90;;;;;;5027349;28;20282;-79
2023/01/17 12:41:11;;;;;;;5.33;1.40;;;5.80;99.90;;;;;;5028005;28;20329;-79
2023/01/17 12:43:41;;;;;;;3.00;1.73;;;5.80;99.90;;;;;;5026606;28;20213;-79
2023/01/17 12:46:19;;;;;;;3.37;0.90;;;5.80;99.90;;;;;;5027580;28;20289;-84
2023/01/17 12:48:50;;;;;;;3.37;1.40;;;5.70;99.90;;;;;;5027662;28;20563;-79
2023/01/17 12:51:26;;;;;;;2.30;1.30;;;5.70;99.90;;;;;;5026890;28;20202;-79
2023/01/17 12:54:01;;;;;;;2.40;1.23;;;5.70;99.90;;;;;;5027512;28;20253;-79
2023/01/17 12:56:33;;;;;;;3.57;1.30;;;5.70;99.90;;;;;;5027991;28;20197;-79
2023/01/17 12:59:11;;;;;;;2.60;1.00;;;5.70;99.90;;;;;;5026335;28;20183;-79
2023/01/17 13:01:41;;;;;;;2.80;1.60;;;5.70;99.90;;;;;;5026782;28;20206;-78
2023/01/17 13:04:18;;;;;;;3.37;1.13;;;5.70;99.90;;;;;;5025904;28;20234;-78
2023/01/17 13:06:58;;;;;;;3.20;1.20;;;5.70;99.90;;;;;;5026874;28;20959;-80
2023/01/17 13:09:29;;;;;;;3.00;1.70;;;5.70;99.90;;;;;;5027681;28;20287;-78
2023/01/17 13:12:01;;;;;;;3.80;1.70;;;5.70;99.90;;;;;;5026990;28;20278;-79
2023/01/17 13:14:27;;;;;;;3.60;2.03;;;5.60;99.90;;;;;;5026994;28;20221;-78
2023/01/17 13:16:59;;;;;;;2.33;1.47;;;5.60;99.90;;;;;;5024384;28;20234;-80
2023/01/17 13:19:33;;;;;;;4.37;1.53;;;5.60;99.90;;;;;;5025716;28;20298;-79
2023/01/17 13:22:03;;;;;;;7.57;2.43;;;5.60;99.90;;;;;;5026472;28;20296;-78
2023/01/17 13:24:39;;;;;;;4.13;1.67;;;5.60;99.90;;;;;;5029143;28;20205;-80
2023/01/17 13:27:30;;;;;;;2.63;1.10;;;5.70;99.90;;;;;;5045086;28;20895;-79
2023/01/17 13:30:15;;;;;;;1.50;1.20;;;5.70;99.90;;;;;;5043361;28;20704;-80
2023/01/17 13:33:15;;;;;;;2.03;1.10;;;5.70;99.90;;;;;;5041085;28;20199;-80
2023/01/17 13:35:53;;;;;;;4.20;1.87;;;5.60;99.90;;;;;;5028388;28;20225;-80
2023/01/17 13:38:36;;;;;;;3.57;1.00;;;5.70;99.90;;;;;;5042410;28;20205;-80
2023/01/17 13:41:16;;;;;;;2.03;1.10;;;5.70;99.90;;;;;;5044094;28;20261;-78
2023/01/17 13:44:20;;;;;;;2.03;1.03;;;5.70;99.90;;;;;;5044555;28;20931;-81
2023/01/17 13:46:56;;;;;;;3.17;1.47;;;5.70;99.90;;;;;;5043573;28;20941;-79
2023/01/17 13:49:33;;;;;;;2.80;1.57;;;5.80;99.90;;;;;;5035418;28;20206;-79
2023/01/17 13:52:09;;;;;;;2.40;1.27;;;5.90;99.90;;;;;;5044530;28;20636;-81
2023/01/17 13:54:45;;;;;;;2.40;1.20;;;5.90;99.90;;;;;;5042672;28;20334;-80
2023/01/17 13:57:34;;;;;;;1.73;1.13;;;5.80;99.90;;;;;;5025738;28;20495;-79
2023/01/17 14:00:50;;;;;;;3.20;0.97;;;5.90;99.90;;;;;;5033454;28;20322;-80
2023/01/17 14:04:01;;;;;;;0.80;0.80;;;5.90;99.90;;;;;;5043946;28;20202;-79
2023/01/17 14:06:33;;;;;;;2.50;1.00;;;5.90;99.90;;;;;;5045412;28;20205;-79
2023/01/17 14:09:04;;;;;;;3.00;1.00;;;5.90;99.90;;;;;;5033078;28;20314;-80
2023/01/17 14:11:34;;;;;;;2.57;1.00;;;5.80;99.90;;;;;;5030003;28;20495;-79
2023/01/17 14:14:34;;;;;;;2.03;1.20;;;5.90;99.90;;;;;;5026968;28;20215;-79
2023/01/17 14:17:33;;;;;;;3.57;1.20;;;5.90;99.90;;;;;;5025113;28;20293;-79
2023/01/17 14:20:41;;;;;;;1.40;1.00;;;5.80;99.90;;;;;;5043914;28;20240;-80
2023/01/17 14:23:33;;;;;;;1.07;0.80;;;5.70;99.90;;;;;;5024237;28;20216;-80
2023/01/17 14:26:21;;;;;;;1.37;1.00;;;5.60;99.90;;;;;;5033596;28;20210;-79
2023/01/17 14:28:48;;;;;;;3.53;1.50;;;5.50;99.90;;;;;;5045376;28;20202;-79
2023/01/17 14:31:16;;;;;;;1.87;1.30;;;5.50;99.90;;;;;;5024170;28;20221;-80
2023/01/17 14:33:43;;;;;;;2.67;1.20;;;5.40;99.90;;;;;;5042611;28;20204;-80
2023/01/17 14:36:20;;;;;;;3.30;1.90;;;5.40;99.90;;;;;;5042032;28;20232;-80
2023/01/17 14:38:49;;;;;;;4.43;2.00;;;5.40;99.90;;;;;;5043786;28;20201;-79
2023/01/17 14:41:21;;;;;;;2.40;1.13;;;5.40;99.90;;;;;;5044291;28;20241;-81
2023/01/17 14:43:59;;;;;;;3.67;1.00;;;5.40;99.90;;;;;;5119617;27;21083;-80
2023/01/17 14:46:29;;;;;;;1.87;1.00;;;5.40;99.90;;;;;;5100717;28;20769;-81
2023/01/17 14:49:01;;;;;;;3.47;1.50;;;5.30;99.90;;;;;;5098205;28;20296;-79
2023/01/17 14:51:28;;;;;;;3.97;1.37;;;5.40;99.90;;;;;;5098973;28;20200;-80